Time,TemperatureF,DewpointF,PressureIn,WindDirection,WindDirectionDegrees,WindSpeedMPH,WindSpeedGustMPH,Humidity,HourlyPrecipIn,Conditions,Clouds,dailyrainin,SoftwareType,DateUTC
2013-06-28 00:02:00,68.0,65.0,29.79,WNW,290,0.0,0.0,91,0.00,,,0.47,,2013-06-28 04:02:00,
2013-06-28 00:12:00,68.0,66.0,29.79,WNW,290,0.0,0.0,92,0.00,,,0.47,,2013-06-28 04:12:00,
2013-06-28 00:22:00,68.0,66.0,29.79,WNW,290,0.0,0.0,92,0.00,,,0.47,,2013-06-28 04:22:00,
2013-06-28 00:33:00,68.0,66.0,29.79,WNW,290,0.0,0.0,92,0.00,,,0.47,,2013-06-28 04:33:00,
2013-06-28 00:43:00,68.0,66.0,29.79,WNW,290,0.0,0.0,92,0.00,,,0.47,,2013-06-28 04:43:00,
2013-06-28 00:53:00,68.0,66.0,29.78,WNW,290,0.0,0.0,93,0.00,,,0.47,,2013-06-28 04:53:00,
2013-06-28 01:01:00,68.0,66.0,29.78,WNW,290,0.0,0.0,93,0.00,,,0.47,,2013-06-28 05:01:00,
2013-06-28 01:43:00,68.0,66.0,29.78,WNW,296,0.0,0.0,93,0.00,,,0.47,,2013-06-28 05:43:00,
2013-06-28 01:53:00,68.0,66.0,29.77,WNW,296,0.0,0.0,93,0.00,,,0.47,,2013-06-28 05:53:00,
2013-06-28 02:02:00,68.0,66.0,29.77,WNW,296,0.0,0.0,93,0.00,,,0.47,,2013-06-28 06:02:00,
2013-06-28 02:12:00,68.0,66.0,29.76,WNW,296,0.0,0.0,94,0.00,,,0.47,,2013-06-28 06:12:00,
2013-06-28 02:22:00,68.0,66.0,29.76,WNW,296,0.0,0.0,94,0.00,,,0.47,,2013-06-28 06:22:00,
2013-06-28 02:42:00,68.0,66.0,29.76,WNW,296,0.0,0.0,93,0.00,,,0.47,,2013-06-28 06:42:00,
2013-06-28 02:52:00,67.0,65.0,29.76,WNW,296,0.0,0.0,93,0.00,,,0.47,,2013-06-28 06:52:00,
2013-06-28 03:01:00,67.0,65.0,29.76,WNW,296,0.0,0.0,93,0.00,,,0.47,,2013-06-28 07:01:00,
2013-06-28 03:11:00,67.0,65.0,29.75,WNW,296,0.0,0.0,93,0.01,,,0.48,,2013-06-28 07:11:00,
2013-06-28 03:22:00,67.0,65.0,29.75,WNW,296,0.0,0.0,93,0.01,,,0.48,,2013-06-28 07:22:00,
2013-06-28 03:33:00,67.0,65.0,29.75,WNW,296,0.0,0.0,93,0.01,,,0.48,,2013-06-28 07:33:00,
2013-06-28 03:43:00,67.0,65.0,29.76,WNW,296,0.0,0.0,93,0.01,,,0.48,,2013-06-28 07:43:00,
2013-06-28 03:52:00,67.0,65.0,29.75,WNW,296,0.0,0.0,93,0.01,,,0.48,,2013-06-28 07:52:00,
2013-06-28 04:02:00,67.0,65.0,29.75,WNW,296,0.0,0.0,93,0.01,,,0.48,,2013-06-28 08:02:00,
2013-06-28 04:11:00,67.0,65.0,29.75,WNW,296,0.0,0.0,94,0.00,,,0.48,,2013-06-28 08:11:00,
2013-06-28 04:22:00,67.0,65.0,29.75,WNW,296,0.0,0.0,94,0.00,,,0.47,,2013-06-28 08:22:00,
2013-06-28 04:33:00,67.0,65.0,29.75,WNW,296,0.0,0.0,94,0.00,,,0.47,,2013-06-28 08:33:00,
2013-06-28 04:43:00,67.0,65.0,29.75,WNW,296,0.0,0.0,94,0.00,,,0.47,,2013-06-28 08:43:00,
2013-06-28 04:52:00,66.0,64.0,29.75,WNW,296,0.0,0.0,93,0.00,,,0.38,,2013-06-28 08:52:00,
2013-06-28 05:02:00,66.0,64.0,29.75,WNW,296,0.0,0.0,93,0.00,,,0.38,,2013-06-28 09:02:00,
2013-06-28 05:11:00,66.0,64.0,29.75,WNW,296,0.0,0.0,94,0.00,,,0.37,,2013-06-28 09:11:00,
2013-06-28 05:22:00,66.0,64.0,29.75,WNW,296,0.0,0.0,94,0.00,,,0.37,,2013-06-28 09:22:00,
2013-06-28 05:33:00,66.0,64.0,29.76,WNW,296,0.0,0.0,93,0.00,,,0.36,,2013-06-28 09:33:00,
2013-06-28 05:40:00,65.0,63.0,29.75,WNW,296,0.0,0.0,93,0.00,,,0.35,,2013-06-28 09:40:00,
2013-06-28 05:42:00,65.0,63.0,29.75,WNW,296,0.0,0.0,93,0.00,,,0.35,,2013-06-28 09:42:00,
2013-06-28 05:52:00,65.0,63.0,29.75,WNW,296,0.0,0.0,93,0.00,,,0.35,,2013-06-28 09:52:00,
2013-06-28 06:12:00,65.0,63.0,29.75,WNW,296,0.0,0.0,93,0.00,,,0.35,,2013-06-28 10:12:00,
2013-06-28 06:22:00,65.0,63.0,29.75,WNW,296,0.0,0.0,93,0.00,,,0.35,,2013-06-28 10:22:00,
2013-06-28 06:33:00,65.0,63.0,29.75,WNW,296,0.0,0.0,93,0.00,,,0.35,,2013-06-28 10:33:00,
2013-06-28 07:43:00,66.0,64.0,29.76,SSW,205,0.0,1.0,94,0.00,,,0.32,,2013-06-28 11:43:00,
2013-06-28 07:53:00,66.0,64.0,29.76,SSW,205,0.0,1.0,94,0.00,,,0.32,,2013-06-28 11:53:00,
2013-06-28 08:12:00,65.0,63.0,29.76,SSW,205,0.0,0.0,94,0.00,,,0.24,,2013-06-28 12:12:00,
2013-06-28 08:22:00,65.0,63.0,29.76,SSW,205,0.0,0.0,94,0.00,,,0.24,,2013-06-28 12:22:00,
2013-06-28 08:34:00,65.0,63.0,29.76,SSW,205,0.0,0.0,94,0.00,,,0.04,,2013-06-28 12:34:00,
2013-06-28 08:43:00,66.0,65.0,29.76,South,182,0.0,0.0,95,0.00,,,0.04,,2013-06-28 12:43:00,
2013-06-28 08:52:00,66.0,65.0,29.76,South,182,0.0,0.0,95,0.00,,,0.04,,2013-06-28 12:52:00,
2013-06-28 09:01:00,66.0,65.0,29.76,South,182,0.0,0.0,95,0.00,,,0.04,,2013-06-28 13:01:00,
2013-06-28 09:23:00,67.0,66.0,29.76,NW,325,0.0,0.0,95,0.00,,,0.04,,2013-06-28 13:23:00,
2013-06-28 09:33:00,67.0,66.0,29.76,NW,325,0.0,0.0,95,0.00,,,0.04,,2013-06-28 13:33:00,
2013-06-28 09:53:00,69.0,68.0,29.75,SE,134,0.0,0.0,95,0.00,,,0.04,,2013-06-28 13:53:00,
2013-06-28 10:02:00,69.0,68.0,29.75,SE,134,0.0,0.0,95,0.00,,,0.04,,2013-06-28 14:02:00,
2013-06-28 10:12:00,71.0,69.0,29.74,South,170,0.0,0.0,95,0.00,,,0.04,,2013-06-28 14:12:00,
2013-06-28 10:33:00,73.0,71.0,29.74,South,190,0.0,1.0,93,0.00,,,0.04,,2013-06-28 14:33:00,
2013-06-28 10:44:00,73.0,71.0,29.74,South,190,0.0,1.0,93,0.00,,,0.04,,2013-06-28 14:44:00,
2013-06-28 10:53:00,73.0,71.0,29.74,South,190,0.0,1.0,93,0.00,,,0.04,,2013-06-28 14:53:00,
2013-06-28 11:02:00,73.0,71.0,29.74,South,190,0.0,1.0,93,0.00,,,0.04,,2013-06-28 15:02:00,
2013-06-28 11:11:00,76.0,70.0,29.73,South,170,0.0,0.0,82,0.00,,,0.04,,2013-06-28 15:11:00,
2013-06-28 11:24:00,76.0,67.0,29.73,ENE,60,0.0,4.0,74,0.00,,,0.04,,2013-06-28 15:24:00,
2013-06-28 11:34:00,76.0,67.0,29.73,ENE,60,0.0,4.0,74,0.00,,,0.04,,2013-06-28 15:34:00,
2013-06-28 11:43:00,77.0,68.0,29.72,ESE,122,0.0,1.0,74,0.00,,,0.04,,2013-06-28 15:43:00,
2013-06-28 11:52:00,78.0,68.0,29.72,East,90,0.0,4.0,71,0.00,,,0.04,,2013-06-28 15:52:00,
2013-06-28 12:02:00,78.0,68.0,29.72,East,90,0.0,4.0,71,0.00,,,0.04,,2013-06-28 16:02:00,
2013-06-28 12:11:00,78.0,68.0,29.72,East,90,0.0,4.0,71,0.00,,,0.04,,2013-06-28 16:11:00,
2013-06-28 12:24:00,78.0,68.0,29.72,East,90,0.0,4.0,71,0.00,,,0.04,,2013-06-28 16:24:00,
2013-06-28 12:33:00,79.0,65.0,29.72,WSW,242,0.0,6.0,63,0.00,,,0.04,,2013-06-28 16:33:00,
2013-06-28 12:44:00,79.0,65.0,29.72,WSW,242,0.0,6.0,63,0.00,,,0.04,,2013-06-28 16:44:00,
2013-06-28 12:53:00,79.0,65.0,29.72,WSW,242,0.0,6.0,63,0.00,,,0.04,,2013-06-28 16:53:00,
2013-06-28 13:02:00,79.0,65.0,29.72,WSW,242,0.0,6.0,63,0.00,,,0.04,,2013-06-28 17:02:00,
2013-06-28 13:33:00,81.0,65.0,29.71,SE,128,0.0,3.0,59,0.00,,,0.04,,2013-06-28 17:33:00,
2013-06-28 13:44:00,81.0,65.0,29.71,SE,128,0.0,3.0,59,0.00,,,0.04,,2013-06-28 17:44:00,
2013-06-28 13:52:00,82.0,67.0,29.70,SW,216,1.0,3.0,60,0.00,,,0.04,,2013-06-28 17:52:00,
2013-06-28 14:02:00,81.0,70.0,29.70,East,101,0.0,0.0,69,0.00,,,0.04,,2013-06-28 18:02:00,
2013-06-28 14:22:00,82.0,66.0,29.69,SE,143,0.0,4.0,58,0.00,,,0.04,,2013-06-28 18:22:00,
2013-06-28 14:43:00,81.0,69.0,29.68,SSW,202,0.0,10.0,67,0.00,,,0.04,,2013-06-28 18:43:00,
2013-06-28 14:52:00,80.0,67.0,29.67,East,82,0.0,0.0,64,0.00,,,0.04,,2013-06-28 18:52:00,
2013-06-28 15:01:00,80.0,67.0,29.67,East,82,0.0,0.0,64,0.00,,,0.04,,2013-06-28 19:01:00,
2013-06-28 15:11:00,81.0,69.0,29.65,SE,135,0.0,3.0,68,0.00,,,0.04,,2013-06-28 19:11:00,
2013-06-28 15:20:00,80.0,70.0,29.63,ESE,107,0.0,0.0,72,0.00,,,0.04,,2013-06-28 19:20:00,
2013-06-28 15:22:00,81.0,70.0,29.65,NE,50,0.0,1.0,69,0.00,,,0.04,,2013-06-28 19:22:00,
2013-06-28 15:33:00,81.0,66.0,29.64,South,178,0.0,3.0,61,0.00,,,0.04,,2013-06-28 19:33:00,
2013-06-28 15:43:00,80.0,70.0,29.63,ESE,107,0.0,0.0,72,0.00,,,0.04,,2013-06-28 19:43:00,
2013-06-28 15:53:00,80.0,70.0,29.63,ESE,107,0.0,0.0,72,0.00,,,0.04,,2013-06-28 19:53:00,
2013-06-28 16:02:00,80.0,70.0,29.63,ESE,107,0.0,0.0,72,0.00,,,0.04,,2013-06-28 20:02:00,
2013-06-28 16:11:00,80.0,70.0,29.63,ESE,107,0.0,0.0,72,0.00,,,0.04,,2013-06-28 20:11:00,
2013-06-28 23:11:00,67.0,65.0,29.64,NNW,346,0.0,0.0,93,0.00,,,0.38,,2013-06-29 03:11:00,
2013-06-28 23:21:00,67.0,65.0,29.64,NNW,346,0.0,0.0,93,0.00,,,0.38,,2013-06-29 03:21:00,
2013-06-28 23:32:00,67.0,65.0,29.64,NNW,346,0.0,0.0,93,0.00,,,0.38,,2013-06-29 03:32:00,
2013-06-28 23:41:00,67.0,65.0,29.64,NNW,346,0.0,0.0,93,0.00,,,0.38,,2013-06-29 03:41:00,
2013-06-28 23:51:00,67.0,65.0,29.64,NNW,346,0.0,0.0,93,0.00,,,0.38,,2013-06-29 03:51:00,